createdAt,value
2023-02-08T00:00:30.976Z,103319.96
2023-02-08T00:05:57.114Z,103324.52
2023-02-08T00:11:04.586Z,103328.05
2023-02-08T00:16:12.636Z,103332.50
2023-02-08T00:21:20.422Z,103337.34
2023-02-08T00:26:26.111Z,103336.77
2023-02-08T00:31:32.069Z,103334.75
2023-02-08T00:36:38.211Z,103336.13
2023-02-08T00:41:44.039Z,103336.52
2023-02-08T00:46:49.907Z,103338.42
2023-02-08T00:51:57.344Z,103337.02
2023-02-08T00:57:03.603Z,103342.65
2023-02-08T01:02:12.250Z,103345.71
2023-02-08T01:07:18.377Z,103348.41
2023-02-08T01:12:24.975Z,103350.36
2023-02-08T01:17:30.824Z,103345.36
2023-02-08T01:22:36.915Z,103338.85
2023-02-08T01:27:43.145Z,103341.95
2023-02-08T01:32:49.200Z,103340.57
2023-02-08T01:37:55.578Z,103344.64
2023-02-08T01:43:01.764Z,103343.04
2023-02-08T01:48:13.295Z,103345.28
2023-02-08T01:53:18.431Z,103344.95
2023-02-08T01:58:28.117Z,103351.55
2023-02-08T02:03:34.562Z,103354.87
2023-02-08T02:08:45.009Z,103361.79
2023-02-08T02:13:52.757Z,103367.31
2023-02-08T02:18:58.748Z,103372.23
2023-02-08T02:24:30.093Z,103371.48
2023-02-08T02:30:12.751Z,103371.87
2023-02-08T02:35:26.304Z,103381.05
2023-02-08T02:40:44.536Z,103387.31
2023-02-08T02:46:03.384Z,103385.33
2023-02-08T02:51:14.583Z,103383.71
2023-02-08T02:56:22.202Z,103395.96
2023-02-08T03:01:30.163Z,103403.39
2023-02-08T03:06:44.771Z,103397.13
2023-02-08T03:11:57.978Z,103396.85
2023-02-08T03:17:18.663Z,103398.02
2023-02-08T03:22:30.935Z,103398.38
2023-02-08T03:27:40.116Z,103399.85
2023-02-08T03:32:52.572Z,103399.98
2023-02-08T03:38:05.019Z,103406.94
2023-02-08T03:43:16.422Z,103415.85
2023-02-08T03:48:25.455Z,103414.20
2023-02-08T03:53:38.413Z,103416.34
2023-02-08T03:58:52.116Z,103418.30
2023-02-08T04:04:00.672Z,103420.66
2023-02-08T04:09:07.292Z,103419.23
2023-02-08T04:14:13.436Z,103425.65
2023-02-08T04:19:19.212Z,103430.30
2023-02-08T04:24:25.180Z,103429.62
2023-02-08T04:29:31.413Z,103428.50
2023-02-08T04:34:37.380Z,103428.17
2023-02-08T04:39:43.506Z,103431.75
2023-02-08T04:44:49.585Z,103434.38
2023-02-08T04:49:55.665Z,103440.95
2023-02-08T04:55:01.626Z,103441.64
2023-02-08T05:00:10.001Z,103441.11
2023-02-08T05:05:16.269Z,103439.04
2023-02-08T05:10:22.890Z,103439.77
2023-02-08T05:15:28.755Z,103445.70
2023-02-08T05:20:35.516Z,103453.92
2023-02-08T05:25:42.065Z,103457.42
2023-02-08T05:30:49.315Z,103462.80
2023-02-08T05:35:55.892Z,103467.60
2023-02-08T05:41:02.052Z,103474.06
2023-02-08T05:46:09.676Z,103478.45
2023-02-08T05:51:15.826Z,103481.73
2023-02-08T05:56:21.707Z,103482.69
2023-02-08T06:01:27.774Z,103487.95
2023-02-08T06:06:33.729Z,103500.74
2023-02-08T06:11:39.625Z,103503.82
2023-02-08T06:16:46.272Z,103509.00
2023-02-08T06:21:52.241Z,103513.64
2023-02-08T06:26:59.388Z,103513.48
2023-02-08T06:32:05.820Z,103518.63
2023-02-08T06:37:13.371Z,103521.16
2023-02-08T06:42:26.575Z,103526.14
2023-02-08T06:47:34.600Z,103526.65
2023-02-08T06:52:53.862Z,103535.62
2023-02-08T06:57:59.913Z,103539.36
2023-02-08T07:03:13.356Z,103550.08
2023-02-08T07:08:20.101Z,103557.80
2023-02-08T07:16:47.434Z,103571.06
2023-02-08T07:21:53.560Z,103579.44
2023-02-08T07:26:59.452Z,103579.11
2023-02-08T07:32:08.076Z,103578.09
2023-02-08T07:37:14.589Z,103579.01
2023-02-08T07:42:21.923Z,103572.12
2023-02-08T07:47:32.974Z,103572.12
2023-02-08T07:52:39.517Z,103573.81
2023-02-08T07:57:47.510Z,103576.12
2023-02-08T08:02:54.064Z,103577.66
2023-02-08T08:08:00.411Z,103577.81
2023-02-08T08:13:06.652Z,103580.94
2023-02-08T08:18:12.538Z,103585.35
2023-02-08T08:23:19.718Z,103581.08
2023-02-08T08:28:26.570Z,103581.35
2023-02-08T08:33:32.592Z,103580.95
2023-02-08T08:38:41.895Z,103586.94
2023-02-08T08:43:48.035Z,103590.36
2023-02-08T08:48:54.265Z,103592.79
2023-02-08T08:54:00.034Z,103593.90
2023-02-08T08:59:06.012Z,103600.27
2023-02-08T09:04:12.160Z,103603.66
2023-02-08T09:09:18.776Z,103604.90
2023-02-08T09:14:24.676Z,103604.16
2023-02-08T09:19:31.407Z,103599.04
2023-02-08T09:24:37.446Z,103596.52
2023-02-08T09:29:43.615Z,103600.92
2023-02-08T09:34:49.590Z,103606.89
2023-02-08T09:39:57.333Z,103606.73
2023-02-08T09:45:19.693Z,103606.48
2023-02-08T09:50:32.586Z,103604.96
2023-02-08T09:55:41.499Z,103601.60
2023-02-08T10:00:50.821Z,103603.33
2023-02-08T10:05:57.818Z,103606.27
2023-02-08T10:11:35.424Z,103601.29
2023-02-08T10:17:01.074Z,103603.68
2023-02-08T10:22:23.461Z,103604.47
2023-02-08T10:27:40.277Z,103606.10
2023-02-08T10:32:55.496Z,103607.48
2023-02-08T10:38:06.793Z,103602.90
2023-02-08T10:43:33.701Z,103599.83
2023-02-08T10:48:57.380Z,103596.91
2023-02-08T10:54:05.837Z,103585.52
2023-02-08T10:59:24.599Z,103582.89
2023-02-08T11:04:32.667Z,103579.49
2023-02-08T11:09:41.065Z,103577.69
2023-02-08T11:15:00.128Z,103577.67
2023-02-08T11:20:27.124Z,103578.06
2023-02-08T11:25:38.939Z,103577.77
2023-02-08T11:31:12.627Z,103577.15
2023-02-08T11:36:23.376Z,103570.36
2023-02-08T11:41:51.163Z,103572.86
2023-02-08T11:47:10.315Z,103571.27
2023-02-08T11:52:25.862Z,103570.05
2023-02-08T11:57:32.925Z,103569.48
2023-02-08T12:02:41.344Z,103571.59
2023-02-08T12:08:00.106Z,103566.48
2023-02-08T12:13:27.624Z,103570.34
2023-02-08T12:18:56.748Z,103568.13
2023-02-08T12:24:09.073Z,103573.36
2023-02-08T12:29:47.334Z,103569.30
2023-02-08T12:35:24.151Z,103564.84
2023-02-08T12:40:49.888Z,103556.98
2023-02-08T12:46:17.153Z,103550.36
2023-02-08T12:51:31.595Z,103547.23
2023-02-08T12:56:46.550Z,103551.35
2023-02-08T13:02:01.876Z,103545.38
2023-02-08T13:07:14.660Z,103538.09
2023-02-08T13:12:27.286Z,103535.67
2023-02-08T13:17:45.082Z,103533.64
2023-02-08T13:22:53.170Z,103530.39
2023-02-08T13:28:03.417Z,103525.05
2023-02-08T13:33:16.855Z,103515.70
2023-02-08T13:38:28.671Z,103516.41
2023-02-08T13:43:40.756Z,103519.56
2023-02-08T13:48:49.600Z,103513.80
2023-02-08T13:54:13.112Z,103506.00
2023-02-08T13:59:35.245Z,103508.95
2023-02-08T14:04:42.862Z,103515.20
2023-02-08T14:10:08.584Z,103511.66
2023-02-08T14:15:35.324Z,103506.27
2023-02-08T14:20:54.899Z,103511.05
2023-02-08T14:26:08.423Z,103511.55
2023-02-08T14:31:17.724Z,103511.38
2023-02-08T14:36:31.411Z,103509.79
2023-02-08T14:41:54.861Z,103507.95
2023-02-08T14:47:00.999Z,103501.50
2023-02-08T14:52:14.809Z,103500.24
2023-02-08T14:57:26.009Z,103504.28
2023-02-08T15:02:34.338Z,103504.46
2023-02-08T15:07:47.360Z,103503.97
2023-02-08T15:12:57.923Z,103501.38
2023-02-08T15:18:06.179Z,103498.51
2023-02-08T15:23:22.202Z,103496.48
2023-02-08T15:28:30.089Z,103497.16
2023-02-08T15:33:38.426Z,103493.55
2023-02-08T15:38:45.071Z,103485.52
2023-02-08T15:43:51.040Z,103482.46
2023-02-08T15:48:59.221Z,103473.46
2023-02-08T15:54:08.693Z,103467.06
2023-02-08T15:59:25.037Z,103468.80
2023-02-08T16:04:30.989Z,103464.95
2023-02-08T16:09:37.451Z,103469.79
2023-02-08T16:14:52.801Z,103476.73
2023-02-08T16:19:59.564Z,103471.11
2023-02-08T16:25:36.098Z,103471.05
2023-02-08T16:30:45.126Z,103469.73
2023-02-08T16:35:52.256Z,103464.38
2023-02-08T16:41:12.388Z,103459.19
2023-02-08T16:46:28.506Z,103454.08
2023-02-08T16:51:35.735Z,103445.98
2023-02-08T16:56:42.566Z,103444.94
2023-02-08T17:01:50.071Z,103437.80
2023-02-08T17:06:57.564Z,103432.00
2023-02-08T17:12:21.489Z,103431.23
2023-02-08T17:17:30.040Z,103429.82
2023-02-08T17:22:36.308Z,103432.00
2023-02-08T17:27:43.508Z,103432.00
2023-02-08T17:32:50.444Z,103436.40
2023-02-08T17:37:57.750Z,103439.04
2023-02-08T17:43:07.108Z,103440.56
2023-02-08T17:48:13.909Z,103437.79
2023-02-08T17:53:20.745Z,103435.10
2023-02-08T17:58:27.541Z,103433.04
2023-02-08T18:03:34.251Z,103431.16
2023-02-08T18:08:41.004Z,103434.31
2023-02-08T18:13:49.195Z,103428.98
2023-02-08T18:19:02.208Z,103421.91
2023-02-08T18:24:10.231Z,103427.98
2023-02-08T18:29:16.354Z,103425.45
2023-02-08T18:34:22.364Z,103433.17
2023-02-08T18:39:30.000Z,103427.48
2023-02-08T18:44:38.651Z,103428.32
2023-02-08T18:49:45.261Z,103428.02
2023-02-08T18:54:52.169Z,103432.05
2023-02-08T18:59:58.417Z,103434.64
2023-02-08T19:05:05.206Z,103436.70
2023-02-08T19:10:11.478Z,103431.52
2023-02-08T19:15:17.606Z,103423.91
2023-02-08T19:20:24.284Z,103413.08
2023-02-08T19:25:30.589Z,103409.67
2023-02-08T19:30:37.482Z,103405.75
2023-02-08T19:35:43.792Z,103404.77
2023-02-08T19:40:55.512Z,103395.71
2023-02-08T19:46:02.519Z,103394.40
2023-02-08T19:51:09.814Z,103396.99
2023-02-08T19:56:19.039Z,103401.98
2023-02-08T20:01:26.323Z,103400.52
2023-02-08T20:06:36.210Z,103399.28
2023-02-08T20:11:56.349Z,103390.38
2023-02-08T20:17:04.580Z,103382.80
2023-02-08T20:22:10.838Z,103383.80
2023-02-08T20:27:18.356Z,103381.52
2023-02-08T20:32:24.410Z,103385.11
2023-02-08T20:37:30.766Z,103388.63
2023-02-08T20:42:38.106Z,103389.61
2023-02-08T20:47:46.958Z,103385.54
2023-02-08T20:52:53.898Z,103379.32
2023-02-08T20:58:01.490Z,103383.59
2023-02-08T21:03:08.009Z,103381.83
2023-02-08T21:08:14.428Z,103378.42
2023-02-08T21:13:22.823Z,103375.84
2023-02-08T21:18:29.677Z,103371.55
2023-02-08T21:23:36.649Z,103363.78
2023-02-08T21:28:43.825Z,103366.77
2023-02-08T21:33:50.982Z,103373.98
2023-02-08T21:38:59.490Z,103365.51
2023-02-08T21:44:08.171Z,103367.54
2023-02-08T21:49:33.369Z,103359.63
2023-02-08T21:54:42.676Z,103353.38
2023-02-08T21:59:51.476Z,103356.39
2023-02-08T22:04:59.657Z,103347.58
2023-02-08T22:10:10.192Z,103342.71
2023-02-08T22:15:19.203Z,103332.55
2023-02-08T22:20:26.745Z,103320.44
2023-02-08T22:27:46.861Z,103318.81
2023-02-08T22:32:52.666Z,103318.41
2023-02-08T22:37:58.334Z,103307.45
2023-02-08T22:43:03.850Z,103299.34
2023-02-08T22:48:10.105Z,103287.33
2023-02-08T22:53:15.699Z,103277.36
2023-02-08T22:58:21.927Z,103274.84
2023-02-08T23:03:27.673Z,103276.33
2023-02-08T23:08:33.763Z,103271.04
2023-02-08T23:13:39.518Z,103257.95
2023-02-08T23:18:45.282Z,103248.73
2023-02-08T23:23:50.937Z,103246.37
2023-02-08T23:28:56.709Z,103241.73
2023-02-08T23:38:51.251Z,103227.89
2023-02-08T23:43:57.795Z,103219.40
2023-02-08T23:49:04.156Z,103218.14
2023-02-08T23:54:11.415Z,103221.54
2023-02-08T23:59:17.932Z,103228.70
